sensor_id;sensor_type;location;lat;lon;timestamp;pressure;altitude;pressure_sealevel;temperature;humidity
14383;BME280;7275;50.328;8.720;2023-07-22T00:01:19;99595.72;;;20.15;49.45
14383;BME280;7275;50.328;8.720;2023-07-22T00:03:47;99596.06;;;20.10;49.57
14383;BME280;7275;50.328;8.720;2023-07-22T00:06:15;99597.50;;;20.03;49.57
14383;BME280;7275;50.328;8.720;2023-07-22T00:08:44;99612.75;;;20.03;49.66
14383;BME280;7275;50.328;8.720;2023-07-22T00:11:11;99612.00;;;20.01;49.69
14383;BME280;7275;50.328;8.720;2023-07-22T00:13:39;99613.00;;;20.00;49.63
14383;BME280;7275;50.328;8.720;2023-07-22T00:16:06;99609.72;;;19.96;49.51
14383;BME280;7275;50.328;8.720;2023-07-22T00:18:34;99608.13;;;19.93;49.38
14383;BME280;7275;50.328;8.720;2023-07-22T00:21:02;99608.69;;;19.86;49.59
14383;BME280;7275;50.328;8.720;2023-07-22T00:23:30;99606.25;;;19.83;49.61
14383;BME280;7275;50.328;8.720;2023-07-22T00:25:59;99613.03;;;19.76;49.62
14383;BME280;7275;50.328;8.720;2023-07-22T00:28:26;99599.63;;;19.65;49.82
14383;BME280;7275;50.328;8.720;2023-07-22T00:31:02;99606.75;;;19.53;49.99
14383;BME280;7275;50.328;8.720;2023-07-22T00:33:30;99604.66;;;19.46;50.22
14383;BME280;7275;50.328;8.720;2023-07-22T00:35:58;99609.63;;;19.39;50.19
14383;BME280;7275;50.328;8.720;2023-07-22T00:38:25;99606.31;;;19.36;50.36
14383;BME280;7275;50.328;8.720;2023-07-22T00:40:54;99602.78;;;19.35;50.39
14383;BME280;7275;50.328;8.720;2023-07-22T00:43:22;99610.81;;;19.35;50.30
14383;BME280;7275;50.328;8.720;2023-07-22T00:45:52;99605.44;;;19.35;50.35
14383;BME280;7275;50.328;8.720;2023-07-22T00:48:20;99606.41;;;19.34;50.19
14383;BME280;7275;50.328;8.720;2023-07-22T00:50:48;99603.72;;;19.34;50.17
14383;BME280;7275;50.328;8.720;2023-07-22T00:53:15;99602.94;;;19.32;50.16
14383;BME280;7275;50.328;8.720;2023-07-22T00:55:45;99610.13;;;19.32;50.17
14383;BME280;7275;50.328;8.720;2023-07-22T00:58:12;99605.75;;;19.31;49.97
14383;BME280;7275;50.328;8.720;2023-07-22T01:00:41;99601.59;;;19.27;50.09
14383;BME280;7275;50.328;8.720;2023-07-22T01:03:09;99600.97;;;19.23;50.18
14383;BME280;7275;50.328;8.720;2023-07-22T01:05:36;99607.41;;;19.21;50.04
14383;BME280;7275;50.328;8.720;2023-07-22T01:08:05;99601.53;;;19.15;50.04
14383;BME280;7275;50.328;8.720;2023-07-22T01:10:33;99602.72;;;19.11;50.05
14383;BME280;7275;50.328;8.720;2023-07-22T01:13:00;99605.66;;;19.08;50.03
14383;BME280;7275;50.328;8.720;2023-07-22T01:15:28;99601.47;;;19.04;49.93
14383;BME280;7275;50.328;8.720;2023-07-22T01:17:57;99600.94;;;18.99;49.96
14383;BME280;7275;50.328;8.720;2023-07-22T01:20:28;99602.25;;;18.94;49.91
14383;BME280;7275;50.328;8.720;2023-07-22T01:22:57;99610.63;;;18.89;49.74
14383;BME280;7275;50.328;8.720;2023-07-22T01:25:26;99618.88;;;18.86;49.86
14383;BME280;7275;50.328;8.720;2023-07-22T01:27:56;99611.16;;;18.82;49.74
14383;BME280;7275;50.328;8.720;2023-07-22T01:30:23;99608.94;;;18.76;49.58
14383;BME280;7275;50.328;8.720;2023-07-22T01:32:51;99607.44;;;18.72;49.41
14383;BME280;7275;50.328;8.720;2023-07-22T01:35:19;99596.31;;;18.65;49.64
14383;BME280;7275;50.328;8.720;2023-07-22T01:37:47;99600.28;;;18.60;49.77
14383;BME280;7275;50.328;8.720;2023-07-22T01:40:16;99602.56;;;18.53;49.65
14383;BME280;7275;50.328;8.720;2023-07-22T01:42:44;99592.91;;;18.51;49.82
14383;BME280;7275;50.328;8.720;2023-07-22T01:45:11;99600.44;;;18.46;49.70
14383;BME280;7275;50.328;8.720;2023-07-22T01:47:39;99597.19;;;18.41;49.67
14383;BME280;7275;50.328;8.720;2023-07-22T01:50:08;99590.44;;;18.35;49.59
14383;BME280;7275;50.328;8.720;2023-07-22T01:52:36;99598.06;;;18.28;49.85
14383;BME280;7275;50.328;8.720;2023-07-22T01:55:04;99600.09;;;18.25;49.94
14383;BME280;7275;50.328;8.720;2023-07-22T01:57:33;99598.50;;;18.22;50.05
14383;BME280;7275;50.328;8.720;2023-07-22T02:00:01;99596.00;;;18.19;49.91
14383;BME280;7275;50.328;8.720;2023-07-22T02:02:31;99597.94;;;18.17;50.03
14383;BME280;7275;50.328;8.720;2023-07-22T02:04:59;99601.59;;;18.16;49.97
14383;BME280;7275;50.328;8.720;2023-07-22T02:07:27;99602.53;;;18.15;50.03
14383;BME280;7275;50.328;8.720;2023-07-22T02:09:55;99603.59;;;18.13;49.84
14383;BME280;7275;50.328;8.720;2023-07-22T02:12:23;99613.69;;;18.09;49.73
14383;BME280;7275;50.328;8.720;2023-07-22T02:14:52;99611.13;;;18.08;49.94
14383;BME280;7275;50.328;8.720;2023-07-22T02:17:19;99608.56;;;18.06;49.82
14383;BME280;7275;50.328;8.720;2023-07-22T02:19:47;99615.84;;;18.04;49.86
14383;BME280;7275;50.328;8.720;2023-07-22T02:22:15;99612.28;;;18.04;49.99
14383;BME280;7275;50.328;8.720;2023-07-22T02:24:42;99615.16;;;18.01;49.94
14383;BME280;7275;50.328;8.720;2023-07-22T02:27:11;99617.22;;;17.97;49.81
14383;BME280;7275;50.328;8.720;2023-07-22T02:29:38;99610.34;;;17.93;49.97
14383;BME280;7275;50.328;8.720;2023-07-22T02:32:08;99601.78;;;17.88;50.11
14383;BME280;7275;50.328;8.720;2023-07-22T02:34:35;99605.63;;;17.84;50.01
14383;BME280;7275;50.328;8.720;2023-07-22T02:37:04;99603.19;;;17.81;50.26
14383;BME280;7275;50.328;8.720;2023-07-22T02:39:32;99595.34;;;17.78;50.32
14383;BME280;7275;50.328;8.720;2023-07-22T02:42:00;99599.00;;;17.77;50.57
14383;BME280;7275;50.328;8.720;2023-07-22T02:44:27;99612.38;;;17.77;50.47
14383;BME280;7275;50.328;8.720;2023-07-22T02:46:55;99609.03;;;17.74;50.39
14383;BME280;7275;50.328;8.720;2023-07-22T02:49:24;99614.69;;;17.69;50.35
14383;BME280;7275;50.328;8.720;2023-07-22T02:51:51;99610.44;;;17.67;50.55
14383;BME280;7275;50.328;8.720;2023-07-22T02:54:19;99607.81;;;17.65;50.98
14383;BME280;7275;50.328;8.720;2023-07-22T02:56:46;99614.16;;;17.64;51.38
14383;BME280;7275;50.328;8.720;2023-07-22T02:59:14;99612.34;;;17.65;51.66
14383;BME280;7275;50.328;8.720;2023-07-22T03:01:41;99619.38;;;17.66;51.02
14383;BME280;7275;50.328;8.720;2023-07-22T03:04:09;99612.34;;;17.65;51.19
14383;BME280;7275;50.328;8.720;2023-07-22T03:06:40;99610.44;;;17.67;51.07
14383;BME280;7275;50.328;8.720;2023-07-22T03:09:10;99609.56;;;17.66;50.89
14383;BME280;7275;50.328;8.720;2023-07-22T03:11:38;99608.81;;;17.64;51.03
14383;BME280;7275;50.328;8.720;2023-07-22T03:14:05;99616.81;;;17.64;50.99
14383;BME280;7275;50.328;8.720;2023-07-22T03:16:33;99617.78;;;17.63;51.00
14383;BME280;7275;50.328;8.720;2023-07-22T03:19:00;99625.78;;;17.63;50.70
14383;BME280;7275;50.328;8.720;2023-07-22T03:21:28;99631.44;;;17.58;50.94
14383;BME280;7275;50.328;8.720;2023-07-22T03:23:57;99645.97;;;17.54;51.37
14383;BME280;7275;50.328;8.720;2023-07-22T03:26:24;99640.84;;;17.51;51.47
14383;BME280;7275;50.328;8.720;2023-07-22T03:28:53;99642.66;;;17.51;51.55
14383;BME280;7275;50.328;8.720;2023-07-22T03:31:20;99638.19;;;17.51;51.56
14383;BME280;7275;50.328;8.720;2023-07-22T03:33:48;99633.59;;;17.53;51.61
14383;BME280;7275;50.328;8.720;2023-07-22T03:36:16;99646.84;;;17.55;51.48
14383;BME280;7275;50.328;8.720;2023-07-22T03:38:43;99642.25;;;17.57;51.36
14383;BME280;7275;50.328;8.720;2023-07-22T03:41:12;99647.59;;;17.57;51.34
14383;BME280;7275;50.328;8.720;2023-07-22T03:43:40;99644.16;;;17.55;51.20
14383;BME280;7275;50.328;8.720;2023-07-22T03:46:08;99649.75;;;17.52;51.33
14383;BME280;7275;50.328;8.720;2023-07-22T03:48:35;99653.34;;;17.51;51.56
14383;BME280;7275;50.328;8.720;2023-07-22T03:51:03;99644.66;;;17.47;51.78
14383;BME280;7275;50.328;8.720;2023-07-22T03:53:45;99642.91;;;17.46;51.81
14383;BME280;7275;50.328;8.720;2023-07-22T03:56:14;99641.13;;;17.47;51.83
14383;BME280;7275;50.328;8.720;2023-07-22T03:58:41;99638.56;;;17.45;51.87
14383;BME280;7275;50.328;8.720;2023-07-22T04:01:10;99637.69;;;17.45;51.91
14383;BME280;7275;50.328;8.720;2023-07-22T04:03:38;99632.34;;;17.45;51.94
14383;BME280;7275;50.328;8.720;2023-07-22T04:06:05;99640.19;;;17.48;51.87
14383;BME280;7275;50.328;8.720;2023-07-22T04:08:33;99635.63;;;17.50;51.87
14383;BME280;7275;50.328;8.720;2023-07-22T04:11:00;99651.44;;;17.53;51.95
14383;BME280;7275;50.328;8.720;2023-07-22T04:13:30;99637.97;;;17.54;52.02
14383;BME280;7275;50.328;8.720;2023-07-22T04:15:57;99631.56;;;17.57;52.05
14383;BME280;7275;50.328;8.720;2023-07-22T04:18:25;99627.06;;;17.58;52.00
14383;BME280;7275;50.328;8.720;2023-07-22T04:20:56;99633.94;;;17.62;52.10
14383;BME280;7275;50.328;8.720;2023-07-22T04:23:23;99625.78;;;17.63;52.19
14383;BME280;7275;50.328;8.720;2023-07-22T04:25:51;99623.78;;;17.67;52.41
14383;BME280;7275;50.328;8.720;2023-07-22T04:28:19;99627.97;;;17.71;52.49
14383;BME280;7275;50.328;8.720;2023-07-22T04:30:56;99628.50;;;17.76;52.33
14383;BME280;7275;50.328;8.720;2023-07-22T04:33:24;99626.16;;;17.84;52.25
14383;BME280;7275;50.328;8.720;2023-07-22T04:35:53;99632.94;;;17.89;52.23
14383;BME280;7275;50.328;8.720;2023-07-22T04:38:22;99626.19;;;17.96;52.18
14383;BME280;7275;50.328;8.720;2023-07-22T04:40:49;99636.38;;;18.04;52.16
14383;BME280;7275;50.328;8.720;2023-07-22T04:43:17;99631.34;;;18.12;52.16
14383;BME280;7275;50.328;8.720;2023-07-22T04:45:48;99631.78;;;18.18;52.02
14383;BME280;7275;50.328;8.720;2023-07-22T04:48:20;99635.63;;;18.27;52.34
14383;BME280;7275;50.328;8.720;2023-07-22T04:50:48;99629.75;;;18.34;52.12
14383;BME280;7275;50.328;8.720;2023-07-22T04:53:16;99630.06;;;18.43;52.16
14383;BME280;7275;50.328;8.720;2023-07-22T04:55:44;99634.06;;;18.50;52.04
14383;BME280;7275;50.328;8.720;2023-07-22T04:58:12;99635.31;;;18.57;52.05
14383;BME280;7275;50.328;8.720;2023-07-22T05:00:40;99638.41;;;18.63;52.06
14383;BME280;7275;50.328;8.720;2023-07-22T05:03:08;99640.03;;;18.66;52.19
14383;BME280;7275;50.328;8.720;2023-07-22T05:05:37;99647.84;;;18.69;52.20
14383;BME280;7275;50.328;8.720;2023-07-22T05:08:05;99653.97;;;18.71;52.29
14383;BME280;7275;50.328;8.720;2023-07-22T05:10:33;99651.03;;;18.74;52.18
14383;BME280;7275;50.328;8.720;2023-07-22T05:13:01;99655.00;;;18.81;52.02
14383;BME280;7275;50.328;8.720;2023-07-22T05:15:28;99647.28;;;18.89;52.09
14383;BME280;7275;50.328;8.720;2023-07-22T05:17:56;99651.97;;;18.98;51.83
14383;BME280;7275;50.328;8.720;2023-07-22T05:20:23;99652.28;;;19.06;52.02
14383;BME280;7275;50.328;8.720;2023-07-22T05:22:52;99650.84;;;19.13;52.05
14383;BME280;7275;50.328;8.720;2023-07-22T05:25:20;99658.34;;;19.21;52.06
14383;BME280;7275;50.328;8.720;2023-07-22T05:27:47;99660.44;;;19.28;52.01
14383;BME280;7275;50.328;8.720;2023-07-22T05:30:15;99654.66;;;19.34;51.92
14383;BME280;7275;50.328;8.720;2023-07-22T05:33:00;99653.13;;;19.43;51.66
14383;BME280;7275;50.328;8.720;2023-07-22T05:35:28;99654.16;;;19.53;51.77
14383;BME280;7275;50.328;8.720;2023-07-22T05:37:57;99651.78;;;19.61;51.63
14383;BME280;7275;50.328;8.720;2023-07-22T05:40:25;99653.75;;;19.70;51.60
14383;BME280;7275;50.328;8.720;2023-07-22T05:42:52;99654.75;;;19.80;51.66
14383;BME280;7275;50.328;8.720;2023-07-22T05:45:20;99652.25;;;19.89;51.79
14383;BME280;7275;50.328;8.720;2023-07-22T05:47:47;99654.22;;;19.99;51.74
14383;BME280;7275;50.328;8.720;2023-07-22T05:50:15;99660.22;;;20.02;51.80
14383;BME280;7275;50.328;8.720;2023-07-22T05:52:43;99658.75;;;20.09;51.77
14383;BME280;7275;50.328;8.720;2023-07-22T05:55:12;99656.59;;;20.14;51.96
14383;BME280;7275;50.328;8.720;2023-07-22T05:57:41;99656.47;;;20.16;52.25
14383;BME280;7275;50.328;8.720;2023-07-22T06:00:09;99654.19;;;20.22;52.42
14383;BME280;7275;50.328;8.720;2023-07-22T06:02:39;99657.00;;;20.32;52.34
14383;BME280;7275;50.328;8.720;2023-07-22T06:05:07;99647.38;;;20.40;52.54
14383;BME280;7275;50.328;8.720;2023-07-22T06:07:35;99648.28;;;20.52;52.58
14383;BME280;7275;50.328;8.720;2023-07-22T06:10:03;99641.31;;;20.60;52.71
14383;BME280;7275;50.328;8.720;2023-07-22T06:12:32;99649.25;;;20.73;52.35
14383;BME280;7275;50.328;8.720;2023-07-22T06:15:00;99643.84;;;20.84;52.38
14383;BME280;7275;50.328;8.720;2023-07-22T06:17:27;99644.22;;;20.91;52.33
14383;BME280;7275;50.328;8.720;2023-07-22T06:19:55;99655.47;;;20.96;52.45
14383;BME280;7275;50.328;8.720;2023-07-22T06:22:23;99653.25;;;21.01;52.39
14383;BME280;7275;50.328;8.720;2023-07-22T06:24:50;99660.75;;;21.08;52.53
14383;BME280;7275;50.328;8.720;2023-07-22T06:27:18;99658.94;;;21.09;52.14
14383;BME280;7275;50.328;8.720;2023-07-22T06:29:47;99649.50;;;21.14;52.04
14383;BME280;7275;50.328;8.720;2023-07-22T06:32:15;99654.00;;;21.25;52.25
14383;BME280;7275;50.328;8.720;2023-07-22T06:34:42;99657.63;;;21.35;51.83
14383;BME280;7275;50.328;8.720;2023-07-22T06:37:10;99652.75;;;21.40;51.08
14383;BME280;7275;50.328;8.720;2023-07-22T06:39:37;99666.28;;;21.49;51.57
14383;BME280;7275;50.328;8.720;2023-07-22T06:42:05;99660.38;;;21.56;51.80
14383;BME280;7275;50.328;8.720;2023-07-22T06:44:32;99659.88;;;21.62;51.58
14383;BME280;7275;50.328;8.720;2023-07-22T06:47:01;99666.47;;;21.69;52.05
14383;BME280;7275;50.328;8.720;2023-07-22T06:49:29;99663.25;;;21.75;52.17
14383;BME280;7275;50.328;8.720;2023-07-22T06:51:56;99665.56;;;21.79;52.32
14383;BME280;7275;50.328;8.720;2023-07-22T06:54:24;99667.63;;;21.87;52.19
14383;BME280;7275;50.328;8.720;2023-07-22T06:56:52;99667.00;;;21.94;52.21
14383;BME280;7275;50.328;8.720;2023-07-22T06:59:19;99657.06;;;21.95;52.17
14383;BME280;7275;50.328;8.720;2023-07-22T07:01:47;99666.22;;;22.03;52.23
14383;BME280;7275;50.328;8.720;2023-07-22T07:04:16;99661.75;;;22.13;51.99
14383;BME280;7275;50.328;8.720;2023-07-22T07:06:43;99660.84;;;22.24;52.13
14383;BME280;7275;50.328;8.720;2023-07-22T07:09:13;99662.59;;;22.35;51.76
14383;BME280;7275;50.328;8.720;2023-07-22T07:11:41;99669.03;;;22.43;51.95
14383;BME280;7275;50.328;8.720;2023-07-22T07:14:09;99655.75;;;22.51;51.56
14383;BME280;7275;50.328;8.720;2023-07-22T07:16:36;99654.84;;;22.62;51.39
14383;BME280;7275;50.328;8.720;2023-07-22T07:19:04;99654.22;;;22.69;51.35
14383;BME280;7275;50.328;8.720;2023-07-22T07:21:36;99654.81;;;22.82;51.19
14383;BME280;7275;50.328;8.720;2023-07-22T07:24:04;99653.16;;;22.91;51.36
14383;BME280;7275;50.328;8.720;2023-07-22T07:26:31;99652.78;;;23.05;51.06
14383;BME280;7275;50.328;8.720;2023-07-22T07:28:59;99662.06;;;23.22;50.50
14383;BME280;7275;50.328;8.720;2023-07-22T07:31:26;99658.59;;;23.40;50.41
14383;BME280;7275;50.328;8.720;2023-07-22T07:33:57;99664.25;;;23.47;50.06
14383;BME280;7275;50.328;8.720;2023-07-22T07:36:25;99659.06;;;23.55;49.62
14383;BME280;7275;50.328;8.720;2023-07-22T07:38:54;99658.19;;;23.64;49.79
14383;BME280;7275;50.328;8.720;2023-07-22T07:41:21;99659.59;;;23.68;49.51
14383;BME280;7275;50.328;8.720;2023-07-22T07:43:49;99661.47;;;23.67;48.93
14383;BME280;7275;50.328;8.720;2023-07-22T07:46:19;99664.19;;;23.67;49.32
14383;BME280;7275;50.328;8.720;2023-07-22T07:48:49;99664.03;;;23.69;49.17
14383;BME280;7275;50.328;8.720;2023-07-22T07:51:19;99665.03;;;23.77;49.38
14383;BME280;7275;50.328;8.720;2023-07-22T07:53:47;99669.88;;;23.83;48.60
14383;BME280;7275;50.328;8.720;2023-07-22T07:56:17;99664.16;;;23.87;47.64
14383;BME280;7275;50.328;8.720;2023-07-22T07:58:47;99666.56;;;23.99;47.70
14383;BME280;7275;50.328;8.720;2023-07-22T08:01:15;99664.91;;;24.08;46.46
14383;BME280;7275;50.328;8.720;2023-07-22T08:03:43;99662.06;;;24.19;46.24
14383;BME280;7275;50.328;8.720;2023-07-22T08:06:12;99654.50;;;24.32;46.24
14383;BME280;7275;50.328;8.720;2023-07-22T08:08:43;99667.72;;;24.44;46.23
14383;BME280;7275;50.328;8.720;2023-07-22T08:11:12;99664.00;;;24.55;46.15
14383;BME280;7275;50.328;8.720;2023-07-22T08:13:43;99654.53;;;24.69;46.16
14383;BME280;7275;50.328;8.720;2023-07-22T08:16:12;99652.09;;;24.85;46.10
14383;BME280;7275;50.328;8.720;2023-07-22T08:18:40;99654.63;;;24.96;45.48
14383;BME280;7275;50.328;8.720;2023-07-22T08:21:08;99661.25;;;25.11;44.54
14383;BME280;7275;50.328;8.720;2023-07-22T08:23:36;99645.50;;;25.24;44.76
14383;BME280;7275;50.328;8.720;2023-07-22T08:26:04;99650.81;;;25.43;45.37
14383;BME280;7275;50.328;8.720;2023-07-22T08:28:33;99648.31;;;25.59;44.53
14383;BME280;7275;50.328;8.720;2023-07-22T08:31:02;99647.94;;;25.72;43.98
14383;BME280;7275;50.328;8.720;2023-07-22T08:33:30;99647.38;;;25.86;43.98
14383;BME280;7275;50.328;8.720;2023-07-22T08:36:07;99642.72;;;25.96;42.63
14383;BME280;7275;50.328;8.720;2023-07-22T08:38:35;99638.53;;;26.01;42.18
14383;BME280;7275;50.328;8.720;2023-07-22T08:41:03;99638.50;;;26.11;41.94
14383;BME280;7275;50.328;8.720;2023-07-22T08:43:30;99641.25;;;26.19;41.32
14383;BME280;7275;50.328;8.720;2023-07-22T08:46:05;99640.28;;;26.20;41.19
14383;BME280;7275;50.328;8.720;2023-07-22T08:48:34;99642.34;;;26.26;41.38
14383;BME280;7275;50.328;8.720;2023-07-22T08:51:06;99644.25;;;26.34;41.54
14383;BME280;7275;50.328;8.720;2023-07-22T08:53:34;99643.09;;;26.36;41.07
14383;BME280;7275;50.328;8.720;2023-07-22T08:56:02;99636.78;;;26.53;41.24
14383;BME280;7275;50.328;8.720;2023-07-22T08:58:29;99638.38;;;26.64;41.67
14383;BME280;7275;50.328;8.720;2023-07-22T09:00:58;99632.50;;;26.76;41.31
14383;BME280;7275;50.328;8.720;2023-07-22T09:03:28;99629.69;;;26.86;39.97
14383;BME280;7275;50.328;8.720;2023-07-22T09:05:55;99624.72;;;27.07;40.72
14383;BME280;7275;50.328;8.720;2023-07-22T09:08:24;99622.69;;;27.17;40.01
14383;BME280;7275;50.328;8.720;2023-07-22T09:10:51;99632.38;;;27.20;39.78
14383;BME280;7275;50.328;8.720;2023-07-22T09:13:21;99634.44;;;27.26;39.29
14383;BME280;7275;50.328;8.720;2023-07-22T09:15:50;99627.22;;;27.34;37.95
14383;BME280;7275;50.328;8.720;2023-07-22T09:18:18;99616.69;;;27.39;38.45
14383;BME280;7275;50.328;8.720;2023-07-22T09:20:47;99617.06;;;27.68;38.22
14383;BME280;7275;50.328;8.720;2023-07-22T09:23:15;99634.59;;;27.74;37.39
14383;BME280;7275;50.328;8.720;2023-07-22T09:25:43;99620.66;;;27.85;37.61
14383;BME280;7275;50.328;8.720;2023-07-22T09:28:10;99625.28;;;27.93;37.11
14383;BME280;7275;50.328;8.720;2023-07-22T09:30:39;99625.47;;;28.07;37.38
14383;BME280;7275;50.328;8.720;2023-07-22T09:33:10;99620.53;;;28.19;37.68
14383;BME280;7275;50.328;8.720;2023-07-22T09:35:48;99637.69;;;28.19;37.35
14383;BME280;7275;50.328;8.720;2023-07-22T09:38:22;99624.63;;;28.07;36.99
14383;BME280;7275;50.328;8.720;2023-07-22T09:40:50;99625.47;;;27.99;37.08
14383;BME280;7275;50.328;8.720;2023-07-22T09:43:17;99615.06;;;27.95;37.44
14383;BME280;7275;50.328;8.720;2023-07-22T09:45:47;99616.47;;;27.99;37.35
14383;BME280;7275;50.328;8.720;2023-07-22T09:48:15;99610.00;;;28.00;37.15
14383;BME280;7275;50.328;8.720;2023-07-22T09:50:43;99619.50;;;28.04;37.05
14383;BME280;7275;50.328;8.720;2023-07-22T09:53:15;99604.91;;;28.05;35.99
14383;BME280;7275;50.328;8.720;2023-07-22T09:55:43;99608.13;;;28.00;35.64
14383;BME280;7275;50.328;8.720;2023-07-22T09:58:11;99610.53;;;28.03;35.98
14383;BME280;7275;50.328;8.720;2023-07-22T10:00:47;99604.56;;;28.00;35.61
14383;BME280;7275;50.328;8.720;2023-07-22T10:03:16;99596.06;;;27.87;36.36
14383;BME280;7275;50.328;8.720;2023-07-22T10:05:48;99590.78;;;27.77;36.05
14383;BME280;7275;50.328;8.720;2023-07-22T10:08:18;99598.41;;;27.74;36.08
14383;BME280;7275;50.328;8.720;2023-07-22T10:10:48;99601.63;;;27.69;36.72
14383;BME280;7275;50.328;8.720;2023-07-22T10:13:19;99590.09;;;27.59;36.17
14383;BME280;7275;50.328;8.720;2023-07-22T10:15:47;99583.78;;;27.58;36.10
14383;BME280;7275;50.328;8.720;2023-07-22T10:18:15;99591.25;;;27.56;35.90
14383;BME280;7275;50.328;8.720;2023-07-22T10:20:44;99598.72;;;27.54;36.00
14383;BME280;7275;50.328;8.720;2023-07-22T10:23:13;99588.22;;;27.59;35.50
14383;BME280;7275;50.328;8.720;2023-07-22T10:25:44;99586.69;;;27.73;36.03
14383;BME280;7275;50.328;8.720;2023-07-22T10:28:13;99581.13;;;27.99;35.25
14383;BME280;7275;50.328;8.720;2023-07-22T10:30:41;99578.03;;;28.34;35.06
14383;BME280;7275;50.328;8.720;2023-07-22T10:33:09;99567.09;;;28.58;34.32
14383;BME280;7275;50.328;8.720;2023-07-22T10:35:41;99566.19;;;28.82;33.70
14383;BME280;7275;50.328;8.720;2023-07-22T10:38:10;99567.91;;;29.13;33.62
14383;BME280;7275;50.328;8.720;2023-07-22T10:40:46;99549.03;;;29.43;32.04
14383;BME280;7275;50.328;8.720;2023-07-22T10:43:15;99558.72;;;29.68;32.43
14383;BME280;7275;50.328;8.720;2023-07-22T10:45:50;99548.72;;;29.60;30.68
14383;BME280;7275;50.328;8.720;2023-07-22T10:48:19;99551.53;;;29.75;31.65
14383;BME280;7275;50.328;8.720;2023-07-22T10:50:48;99548.44;;;29.78;31.13
14383;BME280;7275;50.328;8.720;2023-07-22T10:53:20;99543.56;;;29.65;30.39
14383;BME280;7275;50.328;8.720;2023-07-22T10:56:08;99550.03;;;29.42;31.36
14383;BME280;7275;50.328;8.720;2023-07-22T10:58:57;99553.25;;;29.14;31.10
14383;BME280;7275;50.328;8.720;2023-07-22T11:01:32;99549.75;;;28.98;31.82
14383;BME280;7275;50.328;8.720;2023-07-22T11:04:08;99568.72;;;28.91;31.98
14383;BME280;7275;50.328;8.720;2023-07-22T11:06:37;99547.28;;;28.88;30.95
14383;BME280;7275;50.328;8.720;2023-07-22T11:09:05;99548.56;;;29.00;31.84
14383;BME280;7275;50.328;8.720;2023-07-22T11:11:37;99551.88;;;29.27;31.71
14383;BME280;7275;50.328;8.720;2023-07-22T11:14:15;99550.22;;;29.63;31.42
14383;BME280;7275;50.328;8.720;2023-07-22T11:16:45;99540.31;;;29.92;29.73
14383;BME280;7275;50.328;8.720;2023-07-22T11:19:13;99537.44;;;30.23;30.24
14383;BME280;7275;50.328;8.720;2023-07-22T11:21:41;99536.47;;;30.53;28.75
14383;BME280;7275;50.328;8.720;2023-07-22T11:24:09;99533.00;;;30.89;29.23
14383;BME280;7275;50.328;8.720;2023-07-22T11:26:38;99529.63;;;31.22;28.32
14383;BME280;7275;50.328;8.720;2023-07-22T11:29:09;99516.09;;;31.50;28.54
14383;BME280;7275;50.328;8.720;2023-07-22T11:31:38;99520.16;;;31.61;28.00
14383;BME280;7275;50.328;8.720;2023-07-22T11:34:09;99516.38;;;31.62;27.84
14383;BME280;7275;50.328;8.720;2023-07-22T11:36:36;99519.91;;;31.56;27.38
14383;BME280;7275;50.328;8.720;2023-07-22T11:39:05;99516.94;;;31.36;27.33
14383;BME280;7275;50.328;8.720;2023-07-22T11:41:34;99513.06;;;31.09;27.52
14383;BME280;7275;50.328;8.720;2023-07-22T11:44:05;99511.78;;;30.91;28.07
14383;BME280;7275;50.328;8.720;2023-07-22T11:46:35;99513.88;;;30.74;28.00
14383;BME280;7275;50.328;8.720;2023-07-22T11:49:03;99518.03;;;30.55;28.13
14383;BME280;7275;50.328;8.720;2023-07-22T11:51:31;99516.16;;;30.41;28.32
14383;BME280;7275;50.328;8.720;2023-07-22T11:53:59;99506.69;;;30.29;28.06
14383;BME280;7275;50.328;8.720;2023-07-22T11:56:28;99512.22;;;30.21;28.45
14383;BME280;7275;50.328;8.720;2023-07-22T11:58:56;99510.25;;;30.15;27.94
14383;BME280;7275;50.328;8.720;2023-07-22T12:01:32;99505.66;;;30.16;28.45
14383;BME280;7275;50.328;8.720;2023-07-22T12:04:00;99511.31;;;30.29;28.02
14383;BME280;7275;50.328;8.720;2023-07-22T12:06:27;99504.56;;;30.39;28.19
14383;BME280;7275;50.328;8.720;2023-07-22T12:08:55;99508.03;;;30.48;28.15
14383;BME280;7275;50.328;8.720;2023-07-22T12:11:24;99497.03;;;30.56;27.62
14383;BME280;7275;50.328;8.720;2023-07-22T12:14:07;99498.44;;;30.66;27.79
14383;BME280;7275;50.328;8.720;2023-07-22T12:16:40;99500.88;;;30.76;27.29
14383;BME280;7275;50.328;8.720;2023-07-22T12:19:09;99492.88;;;30.89;27.51
14383;BME280;7275;50.328;8.720;2023-07-22T12:21:36;99485.47;;;31.04;27.58
14383;BME280;7275;50.328;8.720;2023-07-22T12:24:04;99485.94;;;31.08;27.70
14383;BME280;7275;50.328;8.720;2023-07-22T12:26:32;99488.94;;;31.13;26.95
14383;BME280;7275;50.328;8.720;2023-07-22T12:28:59;99480.16;;;31.17;26.92
14383;BME280;7275;50.328;8.720;2023-07-22T12:31:27;99476.13;;;31.34;26.96
14383;BME280;7275;50.328;8.720;2023-07-22T12:33:56;99475.09;;;31.50;27.13
14383;BME280;7275;50.328;8.720;2023-07-22T12:36:24;99469.38;;;31.73;27.44
14383;BME280;7275;50.328;8.720;2023-07-22T12:38:51;99474.00;;;31.93;27.13
14383;BME280;7275;50.328;8.720;2023-07-22T12:41:19;99477.28;;;32.10;26.44
14383;BME280;7275;50.328;8.720;2023-07-22T12:43:46;99469.41;;;32.00;25.39
14383;BME280;7275;50.328;8.720;2023-07-22T12:46:15;99470.47;;;31.78;25.68
14383;BME280;7275;50.328;8.720;2023-07-22T12:48:43;99483.06;;;31.51;25.59
14383;BME280;7275;50.328;8.720;2023-07-22T12:51:12;99470.31;;;31.37;25.47
14383;BME280;7275;50.328;8.720;2023-07-22T12:53:40;99474.41;;;31.27;25.78
14383;BME280;7275;50.328;8.720;2023-07-22T12:56:07;99476.97;;;31.14;25.15
14383;BME280;7275;50.328;8.720;2023-07-22T12:58:35;99466.56;;;31.03;25.80
14383;BME280;7275;50.328;8.720;2023-07-22T13:01:02;99458.13;;;30.98;25.98
14383;BME280;7275;50.328;8.720;2023-07-22T13:03:30;99459.78;;;30.99;26.36
14383;BME280;7275;50.328;8.720;2023-07-22T13:05:57;99454.59;;;31.04;26.98
14383;BME280;7275;50.328;8.720;2023-07-22T13:08:26;99457.59;;;31.09;25.79
14383;BME280;7275;50.328;8.720;2023-07-22T13:10:54;99445.69;;;30.95;25.81
14383;BME280;7275;50.328;8.720;2023-07-22T13:13:21;99445.28;;;30.98;25.88
14383;BME280;7275;50.328;8.720;2023-07-22T13:15:49;99449.28;;;30.96;26.07
14383;BME280;7275;50.328;8.720;2023-07-22T13:18:16;99445.03;;;30.93;26.13